Time;durP1;ratioP1;P1;durP2;ratioP2;P2;SDS_P1;SDS_P2;PMS_P1;PMS_P2;Temp;Humidity;BMP_temperature;BMP_pressure;BME280_temperature;BME280_humidity;BME280_pressure;Samples;Min_cycle;Max_cycle;Signal;HPM_P1;HPM_P2
2022/02/18 00:01:48;;;;;;;3.50;2.33;;;4.10;99.90;;;;;;5036583;28;20182;-83
2022/02/18 00:04:14;;;;;;;3.43;2.80;;;4.10;99.90;;;;;;5054033;28;20175;-83
2022/02/18 00:06:39;;;;;;;3.23;2.17;;;4.60;99.90;;;;;;5036714;28;20179;-83
2022/02/18 00:09:05;;;;;;;2.57;2.17;;;4.10;99.90;;;;;;5036088;28;20244;-83
2022/02/18 00:11:31;;;;;;;3.50;2.30;;;4.20;99.90;;;;;;5036254;28;20190;-84
2022/02/18 00:13:57;;;;;;;2.80;2.57;;;4.20;99.90;;;;;;5003097;28;20214;-83
2022/02/18 00:16:23;;;;;;;2.27;2.07;;;4.40;99.90;;;;;;5036386;28;20179;-83
2022/02/18 00:18:48;;;;;;;3.23;2.43;;;4.40;99.90;;;;;;5036182;28;20208;-83
2022/02/18 00:21:14;;;;;;;4.00;2.97;;;4.20;99.90;;;;;;5054051;28;20180;-84
2022/02/18 00:23:40;;;;;;;3.70;2.43;;;4.30;99.90;;;;;;5053370;28;20231;-84
2022/02/18 00:26:05;;;;;;;2.93;2.40;;;4.30;99.90;;;;;;5053053;28;20665;-84
2022/02/18 00:28:31;;;;;;;4.20;2.53;;;4.30;99.90;;;;;;5035345;28;20186;-84
2022/02/18 00:30:57;;;;;;;3.23;2.17;;;4.30;99.90;;;;;;5053147;28;20209;-85
2022/02/18 00:33:23;;;;;;;3.20;2.70;;;4.30;99.90;;;;;;5053005;28;20245;-84
2022/02/18 00:35:49;;;;;;;3.40;2.80;;;4.40;99.90;;;;;;5053153;28;20640;-84
2022/02/18 00:38:15;;;;;;;4.60;2.47;;;4.30;99.90;;;;;;5052897;28;20210;-84
2022/02/18 00:40:41;;;;;;;4.83;2.63;;;4.40;99.90;;;;;;5035231;28;20178;-84
2022/02/18 00:43:06;;;;;;;5.43;2.60;;;4.40;99.90;;;;;;5035196;28;20236;-84
2022/02/18 00:45:32;;;;;;;4.17;2.40;;;4.60;99.90;;;;;;5035928;28;20231;-84
2022/02/18 00:47:58;;;;;;;5.00;2.70;;;4.40;99.90;;;;;;5052659;28;20268;-84
2022/02/18 00:50:25;;;;;;;3.97;2.60;;;;;;;;;;5035355;28;20221;-84
2022/02/18 00:52:51;;;;;;;3.13;2.43;;;4.50;99.90;;;;;;5035220;28;20191;-83
2022/02/18 00:55:17;;;;;;;4.73;2.17;;;5.80;99.90;;;;;;5018316;28;20184;-83
2022/02/18 00:57:43;;;;;;;5.53;3.03;;;4.50;99.90;;;;;;5018681;28;20187;-85
2022/02/18 01:00:10;;;;;;;3.33;2.53;;;4.40;99.90;;;;;;5018816;28;20193;-84
2022/02/18 01:02:36;;;;;;;5.97;2.53;;;4.40;99.90;;;;;;5035272;28;20182;-83
2022/02/18 01:05:03;;;;;;;4.93;2.60;;;4.60;99.90;;;;;;5034794;28;20612;-84
2022/02/18 01:07:29;;;;;;;6.50;2.67;;;4.40;99.90;;;;;;5052879;28;20220;-83
2022/02/18 01:09:54;;;;;;;4.47;2.77;;;4.50;99.90;;;;;;5053087;28;20218;-83
2022/02/18 01:12:23;;;;;;;5.00;2.80;;;4.90;99.90;;;;;;5052626;28;20232;-84
2022/02/18 01:14:50;;;;;;;2.97;2.20;;;4.50;99.90;;;;;;5034878;28;20179;-84
2022/02/18 01:17:16;;;;;;;3.27;2.33;;;4.50;99.90;;;;;;5034810;28;20184;-84
2022/02/18 01:19:42;;;;;;;3.07;2.37;;;4.70;99.90;;;;;;5052919;28;20182;-83
2022/02/18 01:22:07;;;;;;;1.47;1.30;;;4.60;99.90;;;;;;5052576;28;20180;-85
2022/02/18 01:24:33;;;;;;;4.03;1.70;;;4.60;99.90;;;;;;5001658;28;20238;-84
2022/02/18 01:26:59;;;;;;;4.87;2.47;;;4.60;99.90;;;;;;5052352;28;20216;-84
2022/02/18 01:29:25;;;;;;;4.57;2.43;;;4.60;99.90;;;;;;5018551;28;20216;-84
2022/02/18 01:31:51;;;;;;;4.17;2.20;;;4.60;99.90;;;;;;5052700;28;20184;-83
2022/02/18 01:34:17;;;;;;;8.90;3.23;;;4.60;99.90;;;;;;5018286;28;20525;-83
2022/02/18 01:36:42;;;;;;;5.23;2.30;;;4.80;99.90;;;;;;5018625;28;20205;-83
2022/02/18 01:39:10;;;;;;;2.47;2.00;;;4.60;99.90;;;;;;5034542;28;20795;-84
2022/02/18 01:41:36;;;;;;;3.20;2.23;;;4.60;99.90;;;;;;5034821;28;20512;-83
2022/02/18 01:44:06;;;;;;;4.37;2.43;;;4.50;99.90;;;;;;5052564;28;20251;-83
2022/02/18 01:46:33;;;;;;;7.27;2.67;;;4.50;99.90;;;;;;5052599;28;20401;-83
2022/02/18 01:48:59;;;;;;;8.90;2.33;;;4.50;99.90;;;;;;5035967;28;20207;-83
2022/02/18 01:51:25;;;;;;;5.37;2.67;;;4.40;99.90;;;;;;5052159;28;20491;-83
2022/02/18 01:53:53;;;;;;;7.37;2.33;;;4.80;99.90;;;;;;5036511;28;20258;-84
2022/02/18 01:56:20;;;;;;;5.73;2.60;;;4.30;99.90;;;;;;5038017;28;20287;-84
2022/02/18 01:58:46;;;;;;;6.97;2.30;;;4.40;99.90;;;;;;5056220;28;20646;-84
2022/02/18 02:01:13;;;;;;;3.03;1.90;;;4.40;99.90;;;;;;5056003;28;20188;-84
2022/02/18 02:03:40;;;;;;;3.73;1.73;;;4.30;99.90;;;;;;5038184;28;20640;-84
2022/02/18 02:06:06;;;;;;;3.67;2.53;;;4.40;99.90;;;;;;5055988;28;20179;-84
2022/02/18 02:08:35;;;;;;;6.23;2.67;;;4.30;99.90;;;;;;5055596;28;20255;-85
2022/02/18 02:11:01;;;;;;;7.73;2.37;;;;;;;;;;5038037;28;20618;-84
2022/02/18 02:13:32;;;;;;;3.87;2.10;;;4.30;99.90;;;;;;5037522;28;20195;-84
2022/02/18 02:15:58;;;;;;;2.57;1.70;;;4.30;99.90;;;;;;5055678;28;20179;-84
2022/02/18 02:18:23;;;;;;;6.50;2.40;;;4.30;99.90;;;;;;5055486;28;20232;-84
2022/02/18 02:20:49;;;;;;;6.87;2.73;;;4.20;99.90;;;;;;5037683;28;20192;-83
2022/02/18 02:23:16;;;;;;;7.33;2.70;;;4.10;99.90;;;;;;5054948;28;20229;-84
2022/02/18 02:25:43;;;;;;;5.67;2.00;;;4.20;99.90;;;;;;5037933;28;20183;-83
2022/02/18 02:28:09;;;;;;;3.63;2.73;;;4.10;99.90;;;;;;5055608;28;20261;-83
2022/02/18 02:30:34;;;;;;;4.47;2.97;;;4.10;99.90;;;;;;5055332;28;20299;-82
2022/02/18 02:33:00;;;;;;;6.27;2.30;;;4.20;99.90;;;;;;5055297;28;20608;-83
2022/02/18 02:35:26;;;;;;;8.40;2.13;;;4.10;99.90;;;;;;5037436;28;20206;-83
2022/02/18 02:37:51;;;;;;;4.57;2.47;;;4.20;99.90;;;;;;5037361;28;20191;-83
2022/02/18 02:40:19;;;;;;;7.17;2.40;;;3.00;99.90;;;;;;5037797;28;20247;-84
2022/02/18 02:42:46;;;;;;;4.90;2.10;;;4.60;99.90;;;;;;5055175;28;20183;-83
2022/02/18 02:45:12;;;;;;;4.53;2.27;;;4.30;99.90;;;;;;5055228;28;20188;-83
2022/02/18 02:47:45;;;;;;;5.07;2.60;;;4.30;99.90;;;;;;5055038;28;20182;-83
2022/02/18 02:50:12;;;;;;;7.50;2.50;;;4.20;99.90;;;;;;5055293;28;20265;-83
2022/02/18 02:52:38;;;;;;;4.17;2.03;;;4.20;99.90;;;;;;5054807;28;20194;-83
2022/02/18 02:55:07;;;;;;;8.67;2.60;;;4.20;99.90;;;;;;5055310;28;20180;-83
2022/02/18 02:57:33;;;;;;;10.20;3.07;;;4.30;99.90;;;;;;5054590;28;20191;-84
2022/02/18 02:59:59;;;;;;;9.73;3.07;;;4.30;99.90;;;;;;5020552;28;20201;-83
2022/02/18 03:02:25;;;;;;;6.17;2.30;;;4.50;99.90;;;;;;5020377;28;20274;-83
2022/02/18 03:04:50;;;;;;;7.67;2.73;;;4.30;99.90;;;;;;5060887;28;20665;-84
2022/02/18 03:07:16;;;;;;;8.03;2.70;;;4.20;99.90;;;;;;5063066;28;20736;-87
2022/02/18 03:09:42;;;;;;;6.27;2.87;;;4.30;99.90;;;;;;5063868;28;20297;-83
2022/02/18 03:12:08;;;;;;;7.30;2.80;;;4.10;99.90;;;;;;5046632;28;20205;-83
2022/02/18 03:14:34;;;;;;;8.90;2.83;;;4.00;99.90;;;;;;5077073;28;20167;-83
2022/02/18 03:16:59;;;;;;;13.47;3.30;;;6.00;99.90;;;;;;5078909;28;20238;-83
2022/02/18 03:19:25;;;;;;;5.80;2.40;;;4.10;99.90;;;;;;5079253;28;20188;-84
2022/02/18 03:21:51;;;;;;;6.90;2.97;;;4.00;99.90;;;;;;5061906;28;20171;-83
2022/02/18 03:24:18;;;;;;;8.73;2.60;;;4.10;99.90;;;;;;5077087;28;20220;-83
2022/02/18 03:26:44;;;;;;;3.70;2.83;;;3.90;99.90;;;;;;5059941;28;20201;-83
2022/02/18 03:29:11;;;;;;;6.00;2.83;;;4.70;99.90;;;;;;5078503;28;20214;-82
2022/02/18 03:31:37;;;;;;;8.67;2.67;;;;;;;;;;5079003;28;20241;-85
2022/02/18 03:34:03;;;;;;;7.20;3.33;;;;;;;;;;5078972;28;20166;-83
2022/02/18 03:36:29;;;;;;;5.27;3.00;;;3.90;99.90;;;;;;5073918;28;20208;-83
2022/02/18 03:38:55;;;;;;;7.10;2.27;;;3.90;99.90;;;;;;5055404;28;20649;-83
2022/02/18 03:41:21;;;;;;;7.63;2.70;;;5.00;99.90;;;;;;5037924;28;20533;-83
2022/02/18 03:43:47;;;;;;;5.87;2.47;;;4.10;99.90;;;;;;5056056;28;20176;-83
2022/02/18 03:46:13;;;;;;;7.13;2.90;;;3.90;99.90;;;;;;5038732;28;20207;-83
2022/02/18 03:48:39;;;;;;;4.10;2.33;;;3.80;99.90;;;;;;5055060;28;20180;-83
2022/02/18 03:51:04;;;;;;;5.67;2.57;;;5.00;99.90;;;;;;5037657;28;20186;-84
2022/02/18 03:53:30;;;;;;;6.90;2.60;;;4.40;99.90;;;;;;5037829;28;20542;-84
2022/02/18 03:55:59;;;;;;;6.33;2.50;;;3.60;99.90;;;;;;5037859;28;20676;-83
2022/02/18 03:58:26;;;;;;;7.40;2.30;;;3.80;99.90;;;;;;5005887;28;20620;-84
2022/02/18 04:00:52;;;;;;;5.83;2.37;;;;;;;;;;5037712;28;20328;-84
2022/02/18 04:03:18;;;;;;;8.10;2.60;;;3.50;99.90;;;;;;5056849;28;20179;-85
2022/02/18 04:05:44;;;;;;;4.93;2.50;;;3.60;99.90;;;;;;5055838;28;20319;-84
2022/02/18 04:08:10;;;;;;;9.50;3.30;;;3.60;99.90;;;;;;5055390;28;20182;-83
2022/02/18 04:10:36;;;;;;;5.90;2.33;;;3.60;99.90;;;;;;5053902;28;20193;-84
2022/02/18 04:13:03;;;;;;;9.37;2.87;;;5.50;99.90;;;;;;5036514;28;20184;-84
2022/02/18 04:15:28;;;;;;;6.47;2.30;;;3.60;99.90;;;;;;5019600;28;20217;-84
2022/02/18 04:17:54;;;;;;;8.30;2.30;;;3.70;99.90;;;;;;5036435;28;20209;-84
2022/02/18 04:20:20;;;;;;;9.67;2.83;;;3.80;99.90;;;;;;5053955;28;20181;-83
2022/02/18 04:22:45;;;;;;;7.60;2.80;;;3.90;99.90;;;;;;5036286;28;20550;-83
2022/02/18 04:25:11;;;;;;;3.40;1.80;;;3.80;99.90;;;;;;5036267;28;20234;-84
2022/02/18 04:27:37;;;;;;;7.77;2.53;;;5.50;99.90;;;;;;5036179;28;20657;-84
2022/02/18 04:30:05;;;;;;;3.10;1.93;;;3.90;99.90;;;;;;5053873;28;20267;-84
2022/02/18 04:32:31;;;;;;;5.93;2.47;;;3.90;99.90;;;;;;5035952;28;20205;-85
2022/02/18 04:34:57;;;;;;;13.50;2.83;;;3.90;99.90;;;;;;5053462;28;20188;-84
2022/02/18 04:37:23;;;;;;;8.20;2.17;;;3.80;99.90;;;;;;5030092;28;20549;-84
2022/02/18 04:39:49;;;;;;;13.57;2.40;;;3.90;99.90;;;;;;5029049;28;20230;-84
2022/02/18 04:42:15;;;;;;;6.57;2.37;;;;;;;;;;5017533;28;20602;-86
2022/02/18 04:44:41;;;;;;;5.63;2.00;;;3.90;99.90;;;;;;5033412;28;20188;-84
2022/02/18 04:47:07;;;;;;;8.50;2.50;;;3.90;99.90;;;;;;5033163;28;20187;-84
2022/02/18 04:49:32;;;;;;;8.20;2.57;;;3.90;99.90;;;;;;5017190;28;20234;-85
2022/02/18 04:51:58;;;;;;;6.53;1.80;;;3.80;99.90;;;;;;5051968;28;20559;-84
2022/02/18 04:54:24;;;;;;;6.93;2.17;;;3.90;99.90;;;;;;5034087;28;20183;-85
2022/02/18 04:56:50;;;;;;;11.63;2.30;;;;;;;;;;5051549;28;20191;-84
2022/02/18 04:59:17;;;;;;;9.10;2.30;;;;;;;;;;5032993;28;20189;-85
2022/02/18 05:01:46;;;;;;;4.50;2.40;;;4.00;99.90;;;;;;5017286;28;20189;-84
2022/02/18 05:04:12;;;;;;;6.40;2.17;;;4.10;99.90;;;;;;5034016;28;20173;-85
2022/02/18 05:06:37;;;;;;;10.47;2.37;;;4.20;99.90;;;;;;5032140;28;20181;-86
2022/02/18 05:09:03;;;;;;;12.03;2.70;;;4.10;99.90;;;;;;5051097;28;20221;-84
2022/02/18 05:11:29;;;;;;;5.77;2.13;;;4.10;99.90;;;;;;5034224;28;20191;-85
2022/02/18 05:13:54;;;;;;;5.30;1.77;;;4.10;99.90;;;;;;5017010;28;20195;-84
2022/02/18 05:16:20;;;;;;;3.00;2.00;;;4.10;99.90;;;;;;5033451;28;20553;-83
2022/02/18 05:18:47;;;;;;;4.23;1.83;;;4.10;99.90;;;;;;5033066;28;20246;-85
2022/02/18 05:21:15;;;;;;;5.87;1.90;;;4.10;99.90;;;;;;5033504;28;20178;-84
2022/02/18 05:23:41;;;;;;;6.57;1.97;;;4.20;99.90;;;;;;5016961;28;20259;-84
2022/02/18 05:26:07;;;;;;;8.30;2.27;;;4.20;99.90;;;;;;5051221;28;20619;-84
2022/02/18 05:28:32;;;;;;;5.13;1.80;;;4.20;99.90;;;;;;5049298;28;20614;-84
2022/02/18 05:30:58;;;;;;;6.83;2.27;;;4.20;99.90;;;;;;5036358;28;20246;-84
2022/02/18 05:33:23;;;;;;;4.67;1.87;;;4.30;99.90;;;;;;5036591;28;20191;-84
2022/02/18 05:35:50;;;;;;;5.37;1.83;;;4.20;99.90;;;;;;5021130;28;20216;-85
2022/02/18 05:38:16;;;;;;;4.73;1.87;;;;;;;;;;5036380;28;20270;-85
2022/02/18 05:40:41;;;;;;;8.33;2.50;;;4.20;99.90;;;;;;5032028;28;20655;-85
2022/02/18 05:43:07;;;;;;;5.73;2.63;;;4.20;99.90;;;;;;5026856;28;20202;-84
2022/02/18 05:45:33;;;;;;;8.23;2.40;;;4.50;99.90;;;;;;5036689;28;20206;-85
2022/02/18 05:47:59;;;;;;;6.70;2.60;;;4.60;99.90;;;;;;5036277;28;20228;-84
2022/02/18 05:50:24;;;;;;;8.43;2.83;;;4.00;99.90;;;;;;5037301;28;20236;-84
2022/02/18 05:52:50;;;;;;;4.40;2.00;;;4.20;99.90;;;;;;5036874;28;20259;-85
2022/02/18 05:55:16;;;;;;;7.30;2.73;;;4.00;99.90;;;;;;5037463;28;20188;-85
2022/02/18 05:57:41;;;;;;;10.40;2.63;;;4.10;99.90;;;;;;5038223;28;20240;-84
2022/02/18 06:00:08;;;;;;;4.80;1.83;;;4.60;99.90;;;;;;5055015;28;20699;-85
2022/02/18 06:02:34;;;;;;;14.67;2.40;;;3.80;99.90;;;;;;5055226;28;20637;-85
2022/02/18 06:05:01;;;;;;;8.27;2.73;;;4.00;99.90;;;;;;5055746;28;20225;-84
2022/02/18 06:07:27;;;;;;;6.03;2.50;;;4.60;99.90;;;;;;5056221;28;20192;-85
2022/02/18 06:09:53;;;;;;;8.23;2.73;;;4.40;99.90;;;;;;5038079;28;20199;-85
2022/02/18 06:12:18;;;;;;;11.23;3.13;;;4.00;99.90;;;;;;5056003;28;20189;-83
2022/02/18 06:14:49;;;;;;;7.17;3.10;;;5.30;99.90;;;;;;5021472;28;20541;-84
2022/02/18 06:17:16;;;;;;;11.67;3.67;;;3.70;99.90;;;;;;5022490;28;20278;-83
2022/02/18 06:19:41;;;;;;;11.63;3.70;;;3.60;99.90;;;;;;5056289;28;20636;-84
2022/02/18 06:22:07;;;;;;;11.33;3.80;;;3.70;99.90;;;;;;5038161;28;20274;-85
2022/02/18 06:24:33;;;;;;;11.37;2.73;;;3.60;99.90;;;;;;5037972;28;20227;-85
2022/02/18 06:26:58;;;;;;;3.73;2.03;;;4.80;99.90;;;;;;5038105;28;20263;-85
2022/02/18 06:29:24;;;;;;;8.47;2.97;;;3.70;99.90;;;;;;5021451;28;20208;-84
2022/02/18 06:31:50;;;;;;;6.67;2.50;;;4.10;99.90;;;;;;5055521;28;20209;-85
2022/02/18 06:34:16;;;;;;;7.10;2.40;;;;;;;;;;5055761;28;20643;-86
2022/02/18 06:36:42;;;;;;;7.90;2.73;;;3.70;99.90;;;;;;5055188;28;20185;-86
2022/02/18 06:39:09;;;;;;;8.90;2.37;;;;;;;;;;5020428;28;20631;-86
2022/02/18 06:41:35;;;;;;;5.10;2.00;;;6.00;99.90;;;;;;5020898;28;20187;-84
2022/02/18 06:44:00;;;;;;;5.50;2.40;;;3.90;99.90;;;;;;5037414;28;20190;-84
2022/02/18 06:46:26;;;;;;;12.60;3.50;;;4.30;99.90;;;;;;5059384;28;20721;-85
2022/02/18 06:48:52;;;;;;;10.60;2.97;;;4.00;99.90;;;;;;5022286;28;20186;-84
2022/02/18 06:51:17;;;;;;;11.17;2.50;;;4.10;99.90;;;;;;5025466;28;20327;-84
2022/02/18 06:53:43;;;;;;;10.20;3.33;;;;;;;;;;5024132;28;20187;-86
2022/02/18 06:56:09;;;;;;;9.00;2.00;;;4.20;99.90;;;;;;5055784;28;20190;-86
2022/02/18 06:58:35;;;;;;;8.97;2.80;;;4.20;99.90;;;;;;5021765;28;20182;-86
2022/02/18 07:01:01;;;;;;;12.23;3.10;;;4.20;99.90;;;;;;5055712;28;20202;-85
2022/02/18 07:03:27;;;;;;;5.90;1.73;;;4.30;99.90;;;;;;5038052;28;20188;-85
2022/02/18 07:05:55;;;;;;;9.53;2.77;;;4.40;99.90;;;;;;5021510;28;20223;-84
2022/02/18 07:08:21;;;;;;;9.37;2.43;;;4.50;99.90;;;;;;5038373;28;20268;-85
2022/02/18 07:10:46;;;;;;;6.63;2.27;;;4.50;99.90;;;;;;5037443;28;20612;-84
2022/02/18 07:13:12;;;;;;;6.80;2.73;;;4.60;99.90;;;;;;5020970;28;20190;-84
2022/02/18 07:15:37;;;;;;;8.57;2.10;;;4.60;99.90;;;;;;5037294;28;20187;-84
2022/02/18 07:18:03;;;;;;;5.33;2.00;;;4.70;99.90;;;;;;5055119;28;20186;-85
2022/02/18 07:20:29;;;;;;;10.17;3.57;;;4.80;99.90;;;;;;5060425;28;20183;-85
2022/02/18 07:22:55;;;;;;;4.70;2.00;;;4.90;99.90;;;;;;5055533;28;20183;-85
2022/02/18 07:25:22;;;;;;;9.03;3.20;;;5.00;99.90;;;;;;5055517;28;20258;-85
2022/02/18 07:27:48;;;;;;;6.83;2.50;;;5.00;99.90;;;;;;5020527;28;20179;-86
2022/02/18 07:30:16;;;;;;;8.07;2.23;;;5.00;99.90;;;;;;5037515;28;20701;-86
2022/02/18 07:32:43;;;;;;;7.47;2.70;;;5.20;99.90;;;;;;5057620;28;20183;-85
2022/02/18 07:35:09;;;;;;;7.23;2.10;;;5.00;99.90;;;;;;5055074;28;20186;-85
2022/02/18 07:37:34;;;;;;;10.07;3.07;;;4.80;99.90;;;;;;5037406;28;20183;-85
2022/02/18 07:40:00;;;;;;;11.07;3.30;;;4.80;99.90;;;;;;5020615;28;20551;-85
2022/02/18 07:42:26;;;;;;;7.63;2.23;;;4.90;99.90;;;;;;5036456;28;20603;-86
2022/02/18 07:44:52;;;;;;;4.80;2.20;;;5.00;99.90;;;;;;5020532;28;20214;-86
2022/02/18 07:47:18;;;;;;;7.07;2.43;;;;;;;;;;5036849;28;20198;-86
2022/02/18 07:49:44;;;;;;;7.53;2.27;;;5.00;99.90;;;;;;5054617;28;20202;-85
2022/02/18 07:52:11;;;;;;;8.73;2.57;;;5.00;99.90;;;;;;5054004;28;20198;-86
2022/02/18 07:54:37;;;;;;;9.87;2.53;;;4.80;99.90;;;;;;5054835;28;20264;-86
2022/02/18 07:57:04;;;;;;;4.10;1.40;;;4.90;99.90;;;;;;5055976;28;20175;-86
2022/02/18 07:59:30;;;;;;;4.63;1.90;;;4.80;99.90;;;;;;5054312;28;20653;-87
2022/02/18 08:01:56;;;;;;;11.37;2.80;;;4.80;99.90;;;;;;5036082;28;20182;-86
2022/02/18 08:04:22;;;;;;;7.23;2.90;;;4.70;99.90;;;;;;5053469;28;20623;-86
2022/02/18 08:06:48;;;;;;;7.53;2.20;;;4.80;99.90;;;;;;5019585;28;20183;-87
2022/02/18 08:09:13;;;;;;;5.40;1.97;;;4.70;99.90;;;;;;5053395;28;20565;-86
2022/02/18 08:11:39;;;;;;;13.17;3.33;;;4.80;99.90;;;;;;5053407;28;20270;-86
2022/02/18 08:14:05;;;;;;;10.73;2.37;;;4.90;99.90;;;;;;5035596;28;20237;-86
2022/02/18 08:16:32;;;;;;;10.30;3.70;;;4.90;99.90;;;;;;5035292;28;20187;-86
2022/02/18 08:18:58;;;;;;;11.47;4.60;;;4.90;99.90;;;;;;5035371;28;20537;-86
2022/02/18 08:21:25;;;;;;;9.20;3.53;;;5.40;99.90;;;;;;5034980;28;20180;-87
2022/02/18 08:23:52;;;;;;;10.67;3.13;;;5.00;99.90;;;;;;5035055;28;20264;-86
2022/02/18 08:26:22;;;;;;;6.97;2.70;;;5.00;99.90;;;;;;5034836;28;20277;-87
2022/02/18 08:28:49;;;;;;;13.80;2.73;;;5.40;99.90;;;;;;5054104;28;20182;-86
2022/02/18 08:31:15;;;;;;;6.93;2.67;;;5.10;99.90;;;;;;5054838;28;20183;-86
2022/02/18 08:33:43;;;;;;;7.63;2.50;;;5.10;99.90;;;;;;5034735;28;20172;-86
2022/02/18 08:36:12;;;;;;;10.00;4.33;;;5.30;99.90;;;;;;5052201;28;20174;-86
2022/02/18 08:38:38;;;;;;;8.20;2.73;;;5.20;99.90;;;;;;5034633;28;20491;-86
2022/02/18 08:41:04;;;;;;;10.03;3.60;;;5.20;99.90;;;;;;5034313;28;20174;-86
2022/02/18 08:43:29;;;;;;;9.40;2.60;;;5.20;99.90;;;;;;5034621;28;20624;-87
2022/02/18 08:45:55;;;;;;;7.20;3.23;;;5.10;99.90;;;;;;5018126;28;20190;-86
2022/02/18 08:48:21;;;;;;;14.60;4.30;;;;;;;;;;5034507;28;20179;-86
2022/02/18 08:50:47;;;;;;;9.30;4.60;;;5.10;99.90;;;;;;5052647;28;20670;-86
2022/02/18 08:53:12;;;;;;;6.90;2.80;;;5.10;99.90;;;;;;5034596;28;20260;-87
2022/02/18 08:55:38;;;;;;;5.10;2.53;;;5.10;99.90;;;;;;5034460;28;20635;-85
2022/02/18 08:58:05;;;;;;;7.37;2.37;;;5.10;99.90;;;;;;5037680;28;20180;-87
2022/02/18 09:00:31;;;;;;;10.03;2.57;;;5.30;99.90;;;;;;5052908;28;20183;-87
2022/02/18 09:02:57;;;;;;;10.87;2.63;;;5.10;99.90;;;;;;5021357;28;20224;-86
2022/02/18 09:05:24;;;;;;;16.57;6.20;;;5.20;99.90;;;;;;5038515;28;20663;-86
2022/02/18 09:07:50;;;;;;;10.13;4.70;;;5.30;99.90;;;;;;5038859;28;20175;-86
2022/02/18 09:10:16;;;;;;;13.90;5.87;;;;;;;;;;5039370;28;20210;-87
2022/02/18 09:12:42;;;;;;;17.80;6.93;;;5.40;99.90;;;;;;5057838;28;20208;-85
2022/02/18 09:15:10;;;;;;;12.33;4.17;;;5.40;99.90;;;;;;5060565;28;20231;-87
2022/02/18 09:17:37;;;;;;;11.33;4.67;;;5.40;99.90;;;;;;5044909;28;20507;-86
2022/02/18 09:20:05;;;;;;;11.47;3.97;;;5.40;99.90;;;;;;5031529;28;20184;-87
2022/02/18 09:22:31;;;;;;;9.10;3.07;;;5.50;99.90;;;;;;5069588;28;20168;-87
2022/02/18 09:24:57;;;;;;;10.90;3.27;;;5.50;99.90;;;;;;5062275;28;20227;-87
2022/02/18 09:27:23;;;;;;;9.23;2.17;;;5.60;99.90;;;;;;5081097;28;20171;-87
2022/02/18 09:29:49;;;;;;;10.60;2.77;;;5.50;99.90;;;;;;5078780;28;20215;-88
2022/02/18 09:32:16;;;;;;;13.97;3.33;;;5.60;99.90;;;;;;5063253;28;20167;-88
2022/02/18 09:34:44;;;;;;;5.87;2.20;;;5.60;99.90;;;;;;5081297;28;20156;-87
2022/02/18 09:37:15;;;;;;;11.03;2.63;;;;;;;;;;5064129;28;20239;-87
2022/02/18 09:39:42;;;;;;;9.13;3.43;;;5.60;99.90;;;;;;5063982;28;20194;-86
2022/02/18 09:42:10;;;;;;;7.13;3.57;;;5.60;99.90;;;;;;5063671;28;20267;-88
2022/02/18 09:44:36;;;;;;;7.53;2.20;;;5.70;99.90;;;;;;5062425;28;20259;-87
2022/02/18 09:47:02;;;;;;;9.23;3.77;;;5.90;99.90;;;;;;5080273;28;20227;-86
2022/02/18 09:49:29;;;;;;;6.03;2.43;;;6.10;99.90;;;;;;5046664;28;20373;-87
2022/02/18 09:51:56;;;;;;;16.90;2.60;;;6.10;99.90;;;;;;5080242;28;20160;-87
2022/02/18 09:54:21;;;;;;;8.63;3.00;;;6.20;99.90;;;;;;5035446;28;20183;-84
2022/02/18 09:56:48;;;;;;;8.40;2.53;;;6.00;99.90;;;;;;5038655;28;20184;-84
2022/02/18 09:59:14;;;;;;;7.97;2.47;;;6.00;99.90;;;;;;5055357;28;20184;-85
2022/02/18 10:01:40;;;;;;;6.47;2.40;;;;;;;;;;5023273;28;20186;-87
2022/02/18 10:04:09;;;;;;;11.20;2.90;;;6.00;99.90;;;;;;5058246;28;20260;-87
2022/02/18 10:06:37;;;;;;;12.57;4.10;;;6.20;99.90;;;;;;5055322;28;20183;-87
2022/02/18 10:09:02;;;;;;;12.00;4.10;;;6.10;99.90;;;;;;5037237;28;20188;-86
2022/02/18 10:11:33;;;;;;;13.80;4.20;;;6.20;99.90;;;;;;5037327;28;20516;-86
2022/02/18 10:13:59;;;;;;;6.77;2.40;;;6.30;99.90;;;;;;5037619;28;20183;-86
2022/02/18 10:16:25;;;;;;;6.30;2.80;;;6.30;99.90;;;;;;5023445;28;20547;-86
2022/02/18 10:18:59;;;;;;;5.67;1.73;;;6.40;99.90;;;;;;5037024;28;20202;-86
2022/02/18 10:21:33;;;;;;;4.23;1.77;;;6.50;99.90;;;;;;5042610;28;20278;-86
2022/02/18 10:24:12;;;;;;;10.43;2.77;;;6.60;99.90;;;;;;5055272;28;20302;-86
2022/02/18 10:26:38;;;;;;;8.03;2.17;;;6.70;99.90;;;;;;5037374;28;20176;-87
2022/02/18 10:29:06;;;;;;;9.60;4.00;;;6.80;99.90;;;;;;5054982;28;20183;-87
2022/02/18 10:31:33;;;;;;;14.70;4.77;;;6.80;99.90;;;;;;5054619;28;20180;-86
2022/02/18 10:34:07;;;;;;;7.13;2.03;;;7.00;99.90;;;;;;5020509;28;20179;-87
2022/02/18 10:36:37;;;;;;;4.57;1.60;;;6.90;99.90;;;;;;5055309;28;20203;-87
2022/02/18 10:39:27;;;;;;;4.90;2.17;;;6.70;99.90;;;;;;5039386;28;20198;-86
2022/02/18 10:41:57;;;;;;;3.93;1.83;;;6.60;99.90;;;;;;5037163;28;20280;-85
2022/02/18 10:44:28;;;;;;;4.77;1.60;;;6.60;99.90;;;;;;5045516;28;20511;-87
2022/02/18 10:46:57;;;;;;;5.67;2.10;;;6.40;99.90;;;;;;5037960;28;20202;-86
2022/02/18 10:49:32;;;;;;;8.03;1.90;;;6.40;99.90;;;;;;5041577;28;20211;-84
2022/02/18 10:52:03;;;;;;;3.90;1.33;;;6.20;99.90;;;;;;5040071;28;20186;-85
2022/02/18 10:54:35;;;;;;;11.80;2.10;;;6.20;99.90;;;;;;5056747;28;20613;-86
2022/02/18 10:57:24;;;;;;;6.47;1.67;;;6.30;99.90;;;;;;5040235;28;20257;-85
2022/02/18 10:59:51;;;;;;;9.77;2.77;;;6.20;99.90;;;;;;5037723;28;20183;-86
2022/02/18 11:02:38;;;;;;;4.87;1.80;;;6.10;99.90;;;;;;5055615;28;20176;-87
2022/02/18 11:05:30;;;;;;;12.40;2.20;;;6.10;99.90;;;;;;5035581;28;20628;-87
2022/02/18 11:07:56;;;;;;;9.57;3.07;;;;;;;;;;5054542;28;20173;-87
2022/02/18 11:10:39;;;;;;;4.90;2.20;;;6.00;99.90;;;;;;5020256;28;20200;-87
2022/02/18 11:13:06;;;;;;;7.20;2.53;;;5.90;99.90;;;;;;5036324;28;20186;-87
2022/02/18 11:15:35;;;;;;;12.43;3.47;;;5.80;99.90;;;;;;5036008;28;20191;-86
2022/02/18 11:18:01;;;;;;;6.10;2.20;;;5.90;99.90;;;;;;5054564;28;20172;-88
2022/02/18 11:20:27;;;;;;;9.93;2.43;;;;;;;;;;5039299;28;20244;-90
2022/02/18 11:22:55;;;;;;;8.67;3.10;;;5.90;99.90;;;;;;5054837;28;20179;-89
2022/02/18 11:25:22;;;;;;;6.37;2.30;;;;;;;;;;5035474;28;20242;-94
2022/02/18 11:27:48;;;;;;;10.63;2.67;;;6.10;99.90;;;;;;5019664;28;20274;-88
2022/02/18 11:30:14;;;;;;;7.27;2.43;;;6.10;99.90;;;;;;5035639;28;20763;-89
2022/02/18 11:33:21;;;;;;;11.23;2.40;;;6.50;99.90;;;;;;5035767;28;20337;-89
2022/02/18 11:36:07;;;;;;;8.10;2.57;;;5.90;99.90;;;;;;5035923;28;20180;-89
2022/02/18 11:38:55;;;;;;;4.70;2.33;;;5.80;99.90;;;;;;5016485;28;20195;-89
2022/02/18 11:41:51;;;;;;;8.70;2.87;;;5.80;99.90;;;;;;5037433;28;20186;-91
2022/02/18 11:44:31;;;;;;;8.20;3.13;;;5.80;99.90;;;;;;5038998;28;20270;-88
2022/02/18 11:47:17;;;;;;;7.80;2.47;;;5.80;99.90;;;;;;5055990;28;20648;-88
2022/02/18 11:49:44;;;;;;;9.90;2.20;;;6.10;99.90;;;;;;5055902;28;20231;-89
2022/02/18 11:52:15;;;;;;;10.27;3.00;;;6.30;99.90;;;;;;5038007;28;20679;-87
2022/02/18 11:54:41;;;;;;;10.20;2.53;;;6.50;99.90;;;;;;5037073;28;20312;-87
2022/02/18 11:57:12;;;;;;;7.17;2.70;;;6.80;99.90;;;;;;5020844;28;20272;-88
2022/02/18 11:59:59;;;;;;;11.40;3.70;;;6.90;99.90;;;;;;5036074;28;20176;-89
2022/02/18 12:02:48;;;;;;;20.30;7.93;;;6.50;99.90;;;;;;5053478;28;20183;-88
2022/02/18 12:05:17;;;;;;;9.10;4.03;;;6.30;99.90;;;;;;5053314;28;20197;-87
2022/02/18 12:07:45;;;;;;;12.53;3.20;;;6.20;99.90;;;;;;5053511;28;20187;-88
2022/02/18 12:10:38;;;;;;;4.97;2.37;;;6.10;99.90;;;;;;5018819;28;20218;-89
2022/02/18 12:13:09;;;;;;;14.93;3.17;;;6.50;99.90;;;;;;5034487;28;20276;-88
2022/02/18 12:15:37;;;;;;;7.23;2.70;;;6.90;99.90;;;;;;5054107;28;20266;-89
2022/02/18 12:18:09;;;;;;;7.13;2.90;;;7.10;99.90;;;;;;5036337;28;20183;-88
2022/02/18 12:20:35;;;;;;;5.67;2.43;;;6.70;99.90;;;;;;5053574;28;20184;-88
2022/02/18 12:23:32;;;;;;;11.27;4.03;;;6.60;99.90;;;;;;5034957;28;20641;-89
2022/02/18 12:26:16;;;;;;;12.43;3.93;;;6.40;99.90;;;;;;5035171;28;20214;-89
2022/02/18 12:28:42;;;;;;;9.30;3.03;;;6.20;99.90;;;;;;5053124;28;20214;-88
2022/02/18 12:31:09;;;;;;;15.23;4.83;;;6.00;99.90;;;;;;5060842;28;20211;-88
2022/02/18 12:33:37;;;;;;;16.63;3.93;;;6.10;99.90;;;;;;5022779;28;20591;-88
2022/02/18 12:36:11;;;;;;;14.10;2.77;;;6.10;99.90;;;;;;5035623;28;20282;-88
2022/02/18 12:38:45;;;;;;;7.70;3.17;;;6.10;99.90;;;;;;5017036;28;20214;-89
2022/02/18 12:41:13;;;;;;;34.27;2.90;;;6.10;99.90;;;;;;5055274;28;20244;-88
2022/02/18 12:43:41;;;;;;;6.07;2.20;;;6.10;99.90;;;;;;5051009;28;20175;-87
2022/02/18 12:46:08;;;;;;;7.47;2.90;;;6.10;99.90;;;;;;5050432;28;20199;-88
2022/02/18 12:48:44;;;;;;;8.63;2.73;;;6.10;99.90;;;;;;5049505;28;20171;-87
2022/02/18 12:51:17;;;;;;;8.20;2.73;;;6.20;99.90;;;;;;5045051;28;20222;-87
2022/02/18 12:53:46;;;;;;;8.77;3.00;;;6.10;99.90;;;;;;5031575;28;20215;-87
2022/02/18 12:56:20;;;;;;;5.70;2.03;;;6.20;99.90;;;;;;5036326;28;20169;-88
2022/02/18 12:58:53;;;;;;;8.53;2.43;;;6.30;99.90;;;;;;5017782;28;20264;-88
2022/02/18 13:01:20;;;;;;;4.00;1.90;;;6.60;99.90;;;;;;5002260;28;20189;-88
2022/02/18 13:03:47;;;;;;;7.00;2.67;;;;;;;;;;5041226;28;20171;-88